sensor_id;sensor_type;location;lat;lon;timestamp;P1;durP1;ratioP1;P2;durP2;ratioP2
74510;SDS011;62991;50.040;18.400;2023-02-28T00:00:37;21.85;;;6.25;;
74510;SDS011;62991;50.040;18.400;2023-02-28T00:03:38;21.08;;;6.72;;
74510;SDS011;62991;50.040;18.400;2023-02-28T00:06:38;21.13;;;6.75;;
74510;SDS011;62991;50.040;18.400;2023-02-28T00:09:39;20.40;;;7.57;;
74510;SDS011;62991;50.040;18.400;2023-02-28T00:12:40;16.42;;;6.40;;
74510;SDS011;62991;50.040;18.400;2023-02-28T00:15:40;12.35;;;5.28;;
74510;SDS011;62991;50.040;18.400;2023-02-28T00:18:41;11.60;;;5.65;;
74510;SDS011;62991;50.040;18.400;2023-02-28T00:21:42;10.98;;;4.75;;
74510;SDS011;62991;50.040;18.400;2023-02-28T00:24:43;9.48;;;3.75;;
74510;SDS011;62991;50.040;18.400;2023-02-28T00:27:45;11.85;;;4.85;;
74510;SDS011;62991;50.040;18.400;2023-02-28T00:30:46;12.48;;;4.18;;
74510;SDS011;62991;50.040;18.400;2023-02-28T00:33:47;12.30;;;4.55;;
74510;SDS011;62991;50.040;18.400;2023-02-28T00:36:48;7.43;;;4.03;;
74510;SDS011;62991;50.040;18.400;2023-02-28T00:39:51;15.05;;;5.55;;
74510;SDS011;62991;50.040;18.400;2023-02-28T00:42:52;9.40;;;3.85;;
74510;SDS011;62991;50.040;18.400;2023-02-28T00:45:53;9.15;;;3.90;;
74510;SDS011;62991;50.040;18.400;2023-02-28T00:48:53;13.60;;;4.63;;
74510;SDS011;62991;50.040;18.400;2023-02-28T00:51:54;16.15;;;4.38;;
74510;SDS011;62991;50.040;18.400;2023-02-28T00:54:55;14.43;;;5.60;;
74510;SDS011;62991;50.040;18.400;2023-02-28T00:57:56;11.60;;;4.50;;
74510;SDS011;62991;50.040;18.400;2023-02-28T01:00:57;10.65;;;5.30;;
74510;SDS011;62991;50.040;18.400;2023-02-28T01:03:58;17.55;;;6.57;;
74510;SDS011;62991;50.040;18.400;2023-02-28T01:06:58;16.42;;;5.85;;
74510;SDS011;62991;50.040;18.400;2023-02-28T01:09:59;16.85;;;5.25;;
74510;SDS011;62991;50.040;18.400;2023-02-28T01:13:00;14.00;;;5.18;;
74510;SDS011;62991;50.040;18.400;2023-02-28T01:16:01;12.13;;;4.68;;
74510;SDS011;62991;50.040;18.400;2023-02-28T01:19:02;18.77;;;6.75;;
74510;SDS011;62991;50.040;18.400;2023-02-28T01:22:03;21.08;;;6.50;;
74510;SDS011;62991;50.040;18.400;2023-02-28T01:25:04;18.38;;;6.53;;
74510;SDS011;62991;50.040;18.400;2023-02-28T01:28:05;19.70;;;6.63;;
74510;SDS011;62991;50.040;18.400;2023-02-28T01:31:06;16.08;;;5.65;;
74510;SDS011;62991;50.040;18.400;2023-02-28T01:34:08;18.77;;;8.30;;
74510;SDS011;62991;50.040;18.400;2023-02-28T01:37:08;14.68;;;6.82;;
74510;SDS011;62991;50.040;18.400;2023-02-28T01:40:09;17.63;;;6.68;;
74510;SDS011;62991;50.040;18.400;2023-02-28T01:43:17;21.95;;;7.70;;
74510;SDS011;62991;50.040;18.400;2023-02-28T01:46:24;12.65;;;6.03;;
74510;SDS011;62991;50.040;18.400;2023-02-28T01:49:25;18.33;;;5.72;;
74510;SDS011;62991;50.040;18.400;2023-02-28T01:52:25;17.23;;;5.90;;
74510;SDS011;62991;50.040;18.400;2023-02-28T01:55:27;19.63;;;6.10;;
74510;SDS011;62991;50.040;18.400;2023-02-28T01:58:29;16.65;;;6.75;;
74510;SDS011;62991;50.040;18.400;2023-02-28T02:01:30;13.30;;;4.65;;
74510;SDS011;62991;50.040;18.400;2023-02-28T02:04:37;13.00;;;5.30;;
74510;SDS011;62991;50.040;18.400;2023-02-28T02:07:43;13.27;;;5.82;;
74510;SDS011;62991;50.040;18.400;2023-02-28T02:10:56;11.88;;;4.63;;
74510;SDS011;62991;50.040;18.400;2023-02-28T02:14:06;14.60;;;5.88;;
74510;SDS011;62991;50.040;18.400;2023-02-28T02:24:16;10.55;;;4.13;;
74510;SDS011;62991;50.040;18.400;2023-02-28T02:34:43;9.98;;;5.35;;
74510;SDS011;62991;50.040;18.400;2023-02-28T02:44:31;11.68;;;4.75;;
74510;SDS011;62991;50.040;18.400;2023-02-28T02:47:41;8.38;;;4.05;;
74510;SDS011;62991;50.040;18.400;2023-02-28T02:50:44;15.73;;;4.97;;
74510;SDS011;62991;50.040;18.400;2023-02-28T02:56:49;10.63;;;4.43;;
74510;SDS011;62991;50.040;18.400;2023-02-28T02:59:51;10.93;;;5.07;;
74510;SDS011;62991;50.040;18.400;2023-02-28T03:02:55;9.27;;;4.05;;
74510;SDS011;62991;50.040;18.400;2023-02-28T03:05:57;13.00;;;5.00;;
74510;SDS011;62991;50.040;18.400;2023-02-28T03:09:00;8.02;;;4.03;;
74510;SDS011;62991;50.040;18.400;2023-02-28T03:12:01;14.70;;;4.68;;
74510;SDS011;62991;50.040;18.400;2023-02-28T03:15:06;9.68;;;3.40;;
74510;SDS011;62991;50.040;18.400;2023-02-28T03:18:10;10.95;;;4.53;;
74510;SDS011;62991;50.040;18.400;2023-02-28T03:28:00;10.30;;;4.15;;
74510;SDS011;62991;50.040;18.400;2023-02-28T03:34:32;13.13;;;4.95;;
74510;SDS011;62991;50.040;18.400;2023-02-28T03:37:37;14.38;;;5.63;;
74510;SDS011;62991;50.040;18.400;2023-02-28T03:40:43;12.45;;;5.43;;
74510;SDS011;62991;50.040;18.400;2023-02-28T03:43:53;15.43;;;6.22;;
74510;SDS011;62991;50.040;18.400;2023-02-28T03:47:21;12.30;;;5.88;;
74510;SDS011;62991;50.040;18.400;2023-02-28T03:50:42;16.77;;;6.68;;
74510;SDS011;62991;50.040;18.400;2023-02-28T03:53:46;13.98;;;5.55;;
74510;SDS011;62991;50.040;18.400;2023-02-28T03:57:13;13.32;;;5.75;;
74510;SDS011;62991;50.040;18.400;2023-02-28T04:00:32;19.83;;;7.25;;
74510;SDS011;62991;50.040;18.400;2023-02-28T04:03:37;17.63;;;6.05;;
74510;SDS011;62991;50.040;18.400;2023-02-28T04:06:39;17.15;;;7.05;;
74510;SDS011;62991;50.040;18.400;2023-02-28T04:09:41;16.10;;;6.28;;
74510;SDS011;62991;50.040;18.400;2023-02-28T04:12:41;14.23;;;5.60;;
74510;SDS011;62991;50.040;18.400;2023-02-28T04:15:42;18.48;;;5.93;;
74510;SDS011;62991;50.040;18.400;2023-02-28T04:18:43;21.05;;;8.57;;
74510;SDS011;62991;50.040;18.400;2023-02-28T04:21:44;18.83;;;8.02;;
74510;SDS011;62991;50.040;18.400;2023-02-28T04:24:54;19.67;;;7.65;;
74510;SDS011;62991;50.040;18.400;2023-02-28T04:27:55;25.77;;;8.90;;
74510;SDS011;62991;50.040;18.400;2023-02-28T04:30:59;22.88;;;8.85;;
74510;SDS011;62991;50.040;18.400;2023-02-28T04:34:02;25.20;;;8.90;;
74510;SDS011;62991;50.040;18.400;2023-02-28T04:37:04;28.25;;;10.90;;
74510;SDS011;62991;50.040;18.400;2023-02-28T04:40:05;23.30;;;9.98;;
74510;SDS011;62991;50.040;18.400;2023-02-28T04:43:07;20.55;;;9.30;;
74510;SDS011;62991;50.040;18.400;2023-02-28T04:46:07;27.05;;;10.65;;
74510;SDS011;62991;50.040;18.400;2023-02-28T04:49:09;28.05;;;9.38;;
74510;SDS011;62991;50.040;18.400;2023-02-28T04:52:11;29.80;;;9.95;;
74510;SDS011;62991;50.040;18.400;2023-02-28T04:55:13;30.50;;;9.48;;
74510;SDS011;62991;50.040;18.400;2023-02-28T04:58:14;22.67;;;9.23;;
74510;SDS011;62991;50.040;18.400;2023-02-28T05:01:18;18.35;;;8.00;;
74510;SDS011;62991;50.040;18.400;2023-02-28T05:04:22;27.17;;;9.68;;
74510;SDS011;62991;50.040;18.400;2023-02-28T05:07:23;22.05;;;9.50;;
74510;SDS011;62991;50.040;18.400;2023-02-28T05:10:23;18.25;;;9.07;;
74510;SDS011;62991;50.040;18.400;2023-02-28T05:13:24;27.52;;;8.98;;
74510;SDS011;62991;50.040;18.400;2023-02-28T05:16:25;27.30;;;8.88;;
74510;SDS011;62991;50.040;18.400;2023-02-28T05:19:25;20.85;;;8.27;;
74510;SDS011;62991;50.040;18.400;2023-02-28T05:22:26;27.83;;;9.52;;
74510;SDS011;62991;50.040;18.400;2023-02-28T05:25:27;22.00;;;9.50;;
74510;SDS011;62991;50.040;18.400;2023-02-28T05:28:27;20.63;;;7.82;;
74510;SDS011;62991;50.040;18.400;2023-02-28T05:31:28;32.28;;;8.50;;
74510;SDS011;62991;50.040;18.400;2023-02-28T05:34:29;15.20;;;7.50;;
74510;SDS011;62991;50.040;18.400;2023-02-28T05:37:30;20.42;;;8.73;;
74510;SDS011;62991;50.040;18.400;2023-02-28T05:40:30;20.10;;;7.22;;
74510;SDS011;62991;50.040;18.400;2023-02-28T05:43:31;29.58;;;9.85;;
74510;SDS011;62991;50.040;18.400;2023-02-28T05:46:32;23.40;;;8.25;;
74510;SDS011;62991;50.040;18.400;2023-02-28T05:49:32;23.50;;;10.45;;
74510;SDS011;62991;50.040;18.400;2023-02-28T05:52:33;23.75;;;10.23;;
74510;SDS011;62991;50.040;18.400;2023-02-28T05:55:34;31.35;;;9.48;;
74510;SDS011;62991;50.040;18.400;2023-02-28T05:58:35;28.45;;;10.57;;
74510;SDS011;62991;50.040;18.400;2023-02-28T06:01:37;32.35;;;11.77;;
74510;SDS011;62991;50.040;18.400;2023-02-28T06:04:47;23.85;;;10.73;;
74510;SDS011;62991;50.040;18.400;2023-02-28T06:07:49;26.67;;;10.45;;
74510;SDS011;62991;50.040;18.400;2023-02-28T06:10:49;29.42;;;11.65;;
74510;SDS011;62991;50.040;18.400;2023-02-28T06:13:52;28.52;;;12.15;;
74510;SDS011;62991;50.040;18.400;2023-02-28T06:16:54;28.45;;;10.75;;
74510;SDS011;62991;50.040;18.400;2023-02-28T06:19:55;39.17;;;12.57;;
74510;SDS011;62991;50.040;18.400;2023-02-28T06:22:56;29.80;;;8.82;;
74510;SDS011;62991;50.040;18.400;2023-02-28T06:25:59;45.42;;;10.35;;
74510;SDS011;62991;50.040;18.400;2023-02-28T06:29:00;20.20;;;10.18;;
74510;SDS011;62991;50.040;18.400;2023-02-28T06:32:01;20.38;;;9.95;;
74510;SDS011;62991;50.040;18.400;2023-02-28T06:35:02;24.13;;;8.13;;
74510;SDS011;62991;50.040;18.400;2023-02-28T06:38:03;31.48;;;8.88;;
74510;SDS011;62991;50.040;18.400;2023-02-28T06:41:04;24.70;;;9.82;;
74510;SDS011;62991;50.040;18.400;2023-02-28T06:44:08;38.35;;;11.32;;
74510;SDS011;62991;50.040;18.400;2023-02-28T06:47:16;30.50;;;11.88;;
74510;SDS011;62991;50.040;18.400;2023-02-28T06:50:17;22.48;;;10.50;;
74510;SDS011;62991;50.040;18.400;2023-02-28T06:53:20;34.80;;;12.60;;
74510;SDS011;62991;50.040;18.400;2023-02-28T06:56:21;43.78;;;14.02;;
74510;SDS011;62991;50.040;18.400;2023-02-28T06:59:21;31.77;;;12.77;;
74510;SDS011;62991;50.040;18.400;2023-02-28T07:02:22;29.65;;;12.45;;
74510;SDS011;62991;50.040;18.400;2023-02-28T07:05:23;30.20;;;10.55;;
74510;SDS011;62991;50.040;18.400;2023-02-28T07:08:24;25.77;;;10.88;;
74510;SDS011;62991;50.040;18.400;2023-02-28T07:11:26;35.70;;;13.35;;
74510;SDS011;62991;50.040;18.400;2023-02-28T07:14:27;24.92;;;9.98;;
74510;SDS011;62991;50.040;18.400;2023-02-28T07:17:28;23.45;;;9.27;;
74510;SDS011;62991;50.040;18.400;2023-02-28T07:20:29;28.38;;;11.50;;
74510;SDS011;62991;50.040;18.400;2023-02-28T07:23:30;24.63;;;9.65;;
74510;SDS011;62991;50.040;18.400;2023-02-28T07:26:31;31.73;;;10.60;;
74510;SDS011;62991;50.040;18.400;2023-02-28T07:29:34;21.42;;;8.73;;
74510;SDS011;62991;50.040;18.400;2023-02-28T07:32:34;26.13;;;9.85;;
74510;SDS011;62991;50.040;18.400;2023-02-28T07:35:37;29.85;;;11.45;;
74510;SDS011;62991;50.040;18.400;2023-02-28T07:38:38;27.65;;;11.10;;
74510;SDS011;62991;50.040;18.400;2023-02-28T07:41:39;19.65;;;10.02;;
74510;SDS011;62991;50.040;18.400;2023-02-28T07:44:43;23.15;;;10.20;;
74510;SDS011;62991;50.040;18.400;2023-02-28T07:47:44;24.95;;;10.50;;
74510;SDS011;62991;50.040;18.400;2023-02-28T07:50:45;27.80;;;11.15;;
74510;SDS011;62991;50.040;18.400;2023-02-28T07:53:55;31.33;;;9.57;;
74510;SDS011;62991;50.040;18.400;2023-02-28T07:56:56;18.95;;;9.48;;
74510;SDS011;62991;50.040;18.400;2023-02-28T07:59:57;29.13;;;8.57;;
74510;SDS011;62991;50.040;18.400;2023-02-28T08:02:57;22.63;;;8.98;;
74510;SDS011;62991;50.040;18.400;2023-02-28T08:05:58;30.13;;;9.90;;
74510;SDS011;62991;50.040;18.400;2023-02-28T08:08:59;17.85;;;7.43;;
74510;SDS011;62991;50.040;18.400;2023-02-28T08:11:59;27.17;;;9.00;;
74510;SDS011;62991;50.040;18.400;2023-02-28T08:15:00;24.70;;;9.43;;
74510;SDS011;62991;50.040;18.400;2023-02-28T08:18:01;20.48;;;8.23;;
74510;SDS011;62991;50.040;18.400;2023-02-28T08:21:06;19.98;;;8.55;;
74510;SDS011;62991;50.040;18.400;2023-02-28T08:24:08;19.08;;;8.65;;
74510;SDS011;62991;50.040;18.400;2023-02-28T08:27:08;21.08;;;7.63;;
74510;SDS011;62991;50.040;18.400;2023-02-28T08:30:10;27.60;;;9.48;;
74510;SDS011;62991;50.040;18.400;2023-02-28T08:33:12;21.90;;;9.07;;
74510;SDS011;62991;50.040;18.400;2023-02-28T08:36:13;21.75;;;8.43;;
74510;SDS011;62991;50.040;18.400;2023-02-28T08:39:15;27.95;;;9.45;;
74510;SDS011;62991;50.040;18.400;2023-02-28T08:42:15;23.15;;;9.45;;
74510;SDS011;62991;50.040;18.400;2023-02-28T08:45:16;22.67;;;8.32;;
74510;SDS011;62991;50.040;18.400;2023-02-28T08:48:17;20.05;;;8.20;;
74510;SDS011;62991;50.040;18.400;2023-02-28T08:51:18;19.70;;;8.05;;
74510;SDS011;62991;50.040;18.400;2023-02-28T08:54:25;19.52;;;8.45;;
74510;SDS011;62991;50.040;18.400;2023-02-28T08:57:28;21.63;;;8.13;;
74510;SDS011;62991;50.040;18.400;2023-02-28T09:00:29;16.73;;;6.47;;
74510;SDS011;62991;50.040;18.400;2023-02-28T09:03:30;21.80;;;7.60;;
74510;SDS011;62991;50.040;18.400;2023-02-28T09:06:30;23.15;;;8.57;;
74510;SDS011;62991;50.040;18.400;2023-02-28T09:09:32;14.93;;;6.15;;
74510;SDS011;62991;50.040;18.400;2023-02-28T09:12:33;13.52;;;7.90;;
74510;SDS011;62991;50.040;18.400;2023-02-28T09:15:37;20.38;;;7.40;;
74510;SDS011;62991;50.040;18.400;2023-02-28T09:18:38;13.60;;;7.28;;
74510;SDS011;62991;50.040;18.400;2023-02-28T09:21:39;18.13;;;6.75;;
74510;SDS011;62991;50.040;18.400;2023-02-28T09:24:40;15.32;;;4.07;;
74510;SDS011;62991;50.040;18.400;2023-02-28T09:27:41;15.48;;;6.22;;
74510;SDS011;62991;50.040;18.400;2023-02-28T09:30:42;13.20;;;5.43;;
74510;SDS011;62991;50.040;18.400;2023-02-28T09:33:50;11.15;;;4.75;;
74510;SDS011;62991;50.040;18.400;2023-02-28T09:36:53;15.88;;;5.57;;
74510;SDS011;62991;50.040;18.400;2023-02-28T09:39:54;9.50;;;4.68;;
74510;SDS011;62991;50.040;18.400;2023-02-28T09:42:55;11.43;;;4.50;;
74510;SDS011;62991;50.040;18.400;2023-02-28T09:46:41;9.15;;;4.72;;
74510;SDS011;62991;50.040;18.400;2023-02-28T09:49:36;5.90;;;3.65;;
74510;SDS011;62991;50.040;18.400;2023-02-28T09:52:40;11.10;;;3.42;;
74510;SDS011;62991;50.040;18.400;2023-02-28T09:55:44;11.35;;;4.68;;
74510;SDS011;62991;50.040;18.400;2023-02-28T10:05:52;9.45;;;3.95;;
74510;SDS011;62991;50.040;18.400;2023-02-28T10:09:20;11.20;;;4.13;;
74510;SDS011;62991;50.040;18.400;2023-02-28T10:12:24;8.43;;;3.55;;
74510;SDS011;62991;50.040;18.400;2023-02-28T10:15:29;11.27;;;3.33;;
74510;SDS011;62991;50.040;18.400;2023-02-28T10:18:40;17.75;;;4.72;;
74510;SDS011;62991;50.040;18.400;2023-02-28T10:22:03;10.82;;;4.05;;
74510;SDS011;62991;50.040;18.400;2023-02-28T10:25:21;6.57;;;2.97;;
74510;SDS011;62991;50.040;18.400;2023-02-28T10:28:24;9.38;;;3.90;;
74510;SDS011;62991;50.040;18.400;2023-02-28T10:31:26;8.25;;;3.20;;
74510;SDS011;62991;50.040;18.400;2023-02-28T10:34:27;8.95;;;4.03;;
74510;SDS011;62991;50.040;18.400;2023-02-28T10:37:28;11.15;;;4.10;;
74510;SDS011;62991;50.040;18.400;2023-02-28T10:40:30;8.35;;;3.80;;
74510;SDS011;62991;50.040;18.400;2023-02-28T10:43:36;8.82;;;4.13;;
74510;SDS011;62991;50.040;18.400;2023-02-28T10:46:39;9.57;;;3.45;;
74510;SDS011;62991;50.040;18.400;2023-02-28T10:49:41;11.00;;;4.22;;
74510;SDS011;62991;50.040;18.400;2023-02-28T10:52:47;7.35;;;3.22;;
74510;SDS011;62991;50.040;18.400;2023-02-28T11:05:31;10.85;;;4.35;;
74510;SDS011;62991;50.040;18.400;2023-02-28T11:08:33;10.52;;;3.90;;
74510;SDS011;62991;50.040;18.400;2023-02-28T11:11:52;8.57;;;4.70;;
74510;SDS011;62991;50.040;18.400;2023-02-28T11:15:04;9.55;;;3.97;;
74510;SDS011;62991;50.040;18.400;2023-02-28T11:18:23;11.32;;;3.90;;
74510;SDS011;62991;50.040;18.400;2023-02-28T11:21:30;12.52;;;4.35;;
74510;SDS011;62991;50.040;18.400;2023-02-28T11:24:43;12.75;;;4.50;;
74510;SDS011;62991;50.040;18.400;2023-02-28T11:27:50;10.57;;;4.20;;
74510;SDS011;62991;50.040;18.400;2023-02-28T11:34:25;6.72;;;4.22;;
74510;SDS011;62991;50.040;18.400;2023-02-28T11:37:27;9.05;;;4.57;;
74510;SDS011;62991;50.040;18.400;2023-02-28T11:54:21;9.38;;;4.82;;
74510;SDS011;62991;50.040;18.400;2023-02-28T11:57:35;9.07;;;4.38;;
74510;SDS011;62991;50.040;18.400;2023-02-28T12:14:49;6.35;;;3.95;;
74510;SDS011;62991;50.040;18.400;2023-02-28T12:18:06;11.75;;;5.72;;
74510;SDS011;62991;50.040;18.400;2023-02-28T12:27:29;14.10;;;6.22;;
74510;SDS011;62991;50.040;18.400;2023-02-28T12:30:32;14.38;;;5.90;;
74510;SDS011;62991;50.040;18.400;2023-02-28T12:33:38;15.10;;;5.32;;
74510;SDS011;62991;50.040;18.400;2023-02-28T12:36:46;12.05;;;5.75;;
74510;SDS011;62991;50.040;18.400;2023-02-28T12:39:50;15.60;;;5.82;;
74510;SDS011;62991;50.040;18.400;2023-02-28T12:42:58;12.13;;;6.05;;
74510;SDS011;62991;50.040;18.400;2023-02-28T12:46:19;33.13;;;10.80;;
74510;SDS011;62991;50.040;18.400;2023-02-28T12:49:29;15.95;;;7.00;;
74510;SDS011;62991;50.040;18.400;2023-02-28T12:59:31;14.50;;;6.97;;
74510;SDS011;62991;50.040;18.400;2023-02-28T13:09:12;12.85;;;6.72;;
74510;SDS011;62991;50.040;18.400;2023-02-28T13:12:15;13.18;;;6.80;;
74510;SDS011;62991;50.040;18.400;2023-02-28T13:15:18;11.90;;;6.22;;
74510;SDS011;62991;50.040;18.400;2023-02-28T13:18:37;13.98;;;6.20;;
74510;SDS011;62991;50.040;18.400;2023-02-28T13:21:43;14.85;;;7.13;;
74510;SDS011;62991;50.040;18.400;2023-02-28T13:24:46;15.38;;;7.28;;
74510;SDS011;62991;50.040;18.400;2023-02-28T13:27:47;13.27;;;7.07;;
74510;SDS011;62991;50.040;18.400;2023-02-28T13:34:06;12.60;;;7.10;;
74510;SDS011;62991;50.040;18.400;2023-02-28T13:40:31;14.30;;;6.65;;
74510;SDS011;62991;50.040;18.400;2023-02-28T13:56:34;21.30;;;10.32;;
74510;SDS011;62991;50.040;18.400;2023-02-28T14:06:37;21.48;;;10.00;;
74510;SDS011;62991;50.040;18.400;2023-02-28T14:09:39;15.40;;;7.88;;
74510;SDS011;62991;50.040;18.400;2023-02-28T14:16:52;16.38;;;8.68;;
74510;SDS011;62991;50.040;18.400;2023-02-28T14:19:52;19.58;;;9.27;;
74510;SDS011;62991;50.040;18.400;2023-02-28T14:22:56;20.10;;;10.13;;
74510;SDS011;62991;50.040;18.400;2023-02-28T14:32:45;20.90;;;10.05;;
74510;SDS011;62991;50.040;18.400;2023-02-28T14:36:01;19.42;;;10.15;;
74510;SDS011;62991;50.040;18.400;2023-02-28T14:39:32;26.55;;;10.38;;
74510;SDS011;62991;50.040;18.400;2023-02-28T14:42:34;22.88;;;10.18;;
74510;SDS011;62991;50.040;18.400;2023-02-28T14:45:37;21.15;;;10.25;;
74510;SDS011;62991;50.040;18.400;2023-02-28T14:48:38;23.25;;;10.32;;
74510;SDS011;62991;50.040;18.400;2023-02-28T14:51:39;22.02;;;10.20;;
74510;SDS011;62991;50.040;18.400;2023-02-28T14:54:40;27.90;;;9.65;;
74510;SDS011;62991;50.040;18.400;2023-02-28T14:57:44;19.10;;;9.90;;
74510;SDS011;62991;50.040;18.400;2023-02-28T15:00:58;19.17;;;8.82;;
74510;SDS011;62991;50.040;18.400;2023-02-28T15:04:05;20.88;;;9.90;;
74510;SDS011;62991;50.040;18.400;2023-02-28T15:07:07;19.55;;;9.43;;
74510;SDS011;62991;50.040;18.400;2023-02-28T15:13:18;22.58;;;9.13;;
74510;SDS011;62991;50.040;18.400;2023-02-28T15:16:20;18.05;;;9.10;;
74510;SDS011;62991;50.040;18.400;2023-02-28T15:19:41;27.05;;;11.25;;
74510;SDS011;62991;50.040;18.400;2023-02-28T15:22:49;25.90;;;9.65;;
74510;SDS011;62991;50.040;18.400;2023-02-28T15:25:52;25.27;;;9.80;;
74510;SDS011;62991;50.040;18.400;2023-02-28T15:28:58;27.05;;;11.18;;
74510;SDS011;62991;50.040;18.400;2023-02-28T15:32:02;23.98;;;9.70;;
74510;SDS011;62991;50.040;18.400;2023-02-28T15:38:27;28.90;;;10.00;;
74510;SDS011;62991;50.040;18.400;2023-02-28T15:41:30;26.02;;;10.90;;
74510;SDS011;62991;50.040;18.400;2023-02-28T15:44:38;32.55;;;11.65;;
74510;SDS011;62991;50.040;18.400;2023-02-28T15:47:38;24.45;;;9.15;;
74510;SDS011;62991;50.040;18.400;2023-02-28T15:50:39;28.08;;;10.30;;
74510;SDS011;62991;50.040;18.400;2023-02-28T15:53:50;26.05;;;10.98;;
74510;SDS011;62991;50.040;18.400;2023-02-28T15:57:05;29.38;;;11.13;;
74510;SDS011;62991;50.040;18.400;2023-02-28T16:00:11;33.50;;;12.10;;
74510;SDS011;62991;50.040;18.400;2023-02-28T16:03:27;31.85;;;11.85;;
74510;SDS011;62991;50.040;18.400;2023-02-28T16:07:01;32.83;;;13.55;;
74510;SDS011;62991;50.040;18.400;2023-02-28T16:10:04;32.72;;;12.95;;
74510;SDS011;62991;50.040;18.400;2023-02-28T16:13:05;40.72;;;14.75;;
74510;SDS011;62991;50.040;18.400;2023-02-28T16:16:06;38.63;;;14.77;;
74510;SDS011;62991;50.040;18.400;2023-02-28T16:19:07;42.72;;;16.00;;
74510;SDS011;62991;50.040;18.400;2023-02-28T16:22:09;47.13;;;16.73;;
74510;SDS011;62991;50.040;18.400;2023-02-28T16:25:13;35.88;;;15.85;;
74510;SDS011;62991;50.040;18.400;2023-02-28T16:28:18;41.67;;;16.55;;
74510;SDS011;62991;50.040;18.400;2023-02-28T16:31:33;46.50;;;17.90;;
74510;SDS011;62991;50.040;18.400;2023-02-28T16:37:37;61.63;;;21.40;;
74510;SDS011;62991;50.040;18.400;2023-02-28T16:40:38;63.00;;;22.40;;
74510;SDS011;62991;50.040;18.400;2023-02-28T16:43:39;64.47;;;22.55;;
74510;SDS011;62991;50.040;18.400;2023-02-28T16:46:39;63.75;;;22.17;;
74510;SDS011;62991;50.040;18.400;2023-02-28T16:49:40;80.03;;;24.85;;
74510;SDS011;62991;50.040;18.400;2023-02-28T16:52:43;63.45;;;23.45;;
74510;SDS011;62991;50.040;18.400;2023-02-28T16:55:44;67.47;;;23.58;;
74510;SDS011;62991;50.040;18.400;2023-02-28T16:58:45;76.22;;;26.95;;
74510;SDS011;62991;50.040;18.400;2023-02-28T17:01:46;80.82;;;28.55;;
74510;SDS011;62991;50.040;18.400;2023-02-28T17:04:47;82.53;;;30.10;;
74510;SDS011;62991;50.040;18.400;2023-02-28T17:07:48;85.45;;;30.60;;
74510;SDS011;62991;50.040;18.400;2023-02-28T17:10:49;81.28;;;28.77;;
74510;SDS011;62991;50.040;18.400;2023-02-28T17:13:50;74.93;;;28.63;;
74510;SDS011;62991;50.040;18.400;2023-02-28T17:16:51;76.22;;;27.10;;
74510;SDS011;62991;50.040;18.400;2023-02-28T17:19:51;82.97;;;28.08;;
74510;SDS011;62991;50.040;18.400;2023-02-28T17:22:53;92.57;;;31.05;;
74510;SDS011;62991;50.040;18.400;2023-02-28T17:25:54;87.82;;;32.67;;
74510;SDS011;62991;50.040;18.400;2023-02-28T17:28:55;110.68;;;36.65;;
74510;SDS011;62991;50.040;18.400;2023-02-28T17:31:56;124.35;;;44.00;;
74510;SDS011;62991;50.040;18.400;2023-02-28T17:34:57;129.02;;;42.78;;
74510;SDS011;62991;50.040;18.400;2023-02-28T17:37:58;125.90;;;45.42;;
74510;SDS011;62991;50.040;18.400;2023-02-28T17:40:58;114.28;;;41.92;;
74510;SDS011;62991;50.040;18.400;2023-02-28T17:43:59;127.85;;;42.42;;
74510;SDS011;62991;50.040;18.400;2023-02-28T17:47:00;140.20;;;45.85;;
74510;SDS011;62991;50.040;18.400;2023-02-28T17:50:01;117.78;;;43.65;;
74510;SDS011;62991;50.040;18.400;2023-02-28T17:53:01;115.22;;;42.03;;
74510;SDS011;62991;50.040;18.400;2023-02-28T17:56:02;122.97;;;39.65;;
74510;SDS011;62991;50.040;18.400;2023-02-28T17:59:03;93.45;;;34.45;;
74510;SDS011;62991;50.040;18.400;2023-02-28T18:02:04;101.30;;;37.03;;
74510;SDS011;62991;50.040;18.400;2023-02-28T18:05:05;90.80;;;32.00;;
74510;SDS011;62991;50.040;18.400;2023-02-28T18:08:07;86.28;;;33.10;;
74510;SDS011;62991;50.040;18.400;2023-02-28T18:11:10;100.75;;;33.55;;
74510;SDS011;62991;50.040;18.400;2023-02-28T18:14:17;100.10;;;33.28;;
74510;SDS011;62991;50.040;18.400;2023-02-28T18:17:19;99.47;;;34.88;;
74510;SDS011;62991;50.040;18.400;2023-02-28T18:20:20;102.38;;;35.08;;
74510;SDS011;62991;50.040;18.400;2023-02-28T18:23:21;114.03;;;37.10;;
74510;SDS011;62991;50.040;18.400;2023-02-28T18:26:22;115.05;;;38.72;;
74510;SDS011;62991;50.040;18.400;2023-02-28T18:29:24;121.63;;;44.10;;
74510;SDS011;62991;50.040;18.400;2023-02-28T18:32:26;137.18;;;49.70;;
74510;SDS011;62991;50.040;18.400;2023-02-28T18:35:27;155.05;;;54.60;;
74510;SDS011;62991;50.040;18.400;2023-02-28T18:38:34;174.48;;;62.55;;
74510;SDS011;62991;50.040;18.400;2023-02-28T18:41:35;171.65;;;62.53;;
74510;SDS011;62991;50.040;18.400;2023-02-28T18:44:36;141.68;;;50.17;;
74510;SDS011;62991;50.040;18.400;2023-02-28T18:47:37;115.45;;;40.65;;
74510;SDS011;62991;50.040;18.400;2023-02-28T18:50:38;111.47;;;36.53;;
74510;SDS011;62991;50.040;18.400;2023-02-28T18:53:39;81.72;;;28.38;;
74510;SDS011;62991;50.040;18.400;2023-02-28T18:56:40;80.72;;;26.10;;
74510;SDS011;62991;50.040;18.400;2023-02-28T18:59:41;85.70;;;29.20;;
74510;SDS011;62991;50.040;18.400;2023-02-28T19:02:42;89.00;;;32.40;;
74510;SDS011;62991;50.040;18.400;2023-02-28T19:05:43;84.00;;;31.13;;
74510;SDS011;62991;50.040;18.400;2023-02-28T19:08:43;80.63;;;27.58;;
74510;SDS011;62991;50.040;18.400;2023-02-28T19:11:44;85.47;;;29.15;;
74510;SDS011;62991;50.040;18.400;2023-02-28T19:14:45;83.55;;;28.65;;
74510;SDS011;62991;50.040;18.400;2023-02-28T19:17:46;82.72;;;27.67;;
74510;SDS011;62991;50.040;18.400;2023-02-28T19:20:47;56.67;;;21.23;;
74510;SDS011;62991;50.040;18.400;2023-02-28T19:23:48;58.55;;;21.08;;
74510;SDS011;62991;50.040;18.400;2023-02-28T19:26:49;66.68;;;24.50;;
74510;SDS011;62991;50.040;18.400;2023-02-28T19:29:50;67.55;;;23.42;;
74510;SDS011;62991;50.040;18.400;2023-02-28T19:32:51;66.82;;;22.58;;
74510;SDS011;62991;50.040;18.400;2023-02-28T19:35:52;60.60;;;21.90;;
74510;SDS011;62991;50.040;18.400;2023-02-28T19:38:53;65.22;;;21.05;;
74510;SDS011;62991;50.040;18.400;2023-02-28T19:41:54;66.90;;;23.20;;
74510;SDS011;62991;50.040;18.400;2023-02-28T19:44:55;64.05;;;23.83;;
74510;SDS011;62991;50.040;18.400;2023-02-28T19:47:56;57.33;;;20.55;;
74510;SDS011;62991;50.040;18.400;2023-02-28T19:50:57;61.85;;;21.88;;
74510;SDS011;62991;50.040;18.400;2023-02-28T19:54:00;52.53;;;17.92;;
74510;SDS011;62991;50.040;18.400;2023-02-28T19:57:01;43.05;;;17.77;;
74510;SDS011;62991;50.040;18.400;2023-02-28T20:00:01;48.15;;;16.02;;
74510;SDS011;62991;50.040;18.400;2023-02-28T20:03:02;49.13;;;18.27;;
74510;SDS011;62991;50.040;18.400;2023-02-28T20:06:04;46.65;;;18.38;;
74510;SDS011;62991;50.040;18.400;2023-02-28T20:09:08;54.53;;;18.67;;
74510;SDS011;62991;50.040;18.400;2023-02-28T20:12:09;42.55;;;16.00;;
74510;SDS011;62991;50.040;18.400;2023-02-28T20:15:10;50.88;;;17.92;;